createdAt,value
2017-04-02T00:00:17.125Z,1006.05
2017-04-02T00:01:17.159Z,1006.13
2017-04-02T00:02:17.123Z,1006.12
2017-04-02T00:03:17.085Z,1006.12
2017-04-02T00:04:17.070Z,1006.11
2017-04-02T00:05:17.053Z,1006.11
2017-04-02T00:06:17.040Z,1006.09
2017-04-02T00:07:17.027Z,1006.11
2017-04-02T00:08:17.014Z,1006.15
2017-04-02T00:09:17.000Z,1006.14
2017-04-02T00:10:17.048Z,1006.14
2017-04-02T00:11:17.025Z,1006.17
2017-04-02T00:12:17.012Z,1006.2
2017-04-02T00:13:16.950Z,1006.28
2017-04-02T00:14:16.935Z,1006.24
2017-04-02T00:15:17.050Z,1006.23
2017-04-02T00:16:16.908Z,1006.28
2017-04-02T00:17:16.896Z,1006.25
2017-04-02T00:18:16.883Z,1006.27
2017-04-02T00:19:16.868Z,1006.22
2017-04-02T00:20:16.856Z,1006.24
2017-04-02T00:21:16.842Z,1006.23
2017-04-02T00:22:16.829Z,1006.28
2017-04-02T00:23:16.817Z,1006.27
2017-04-02T00:24:16.864Z,1006.25
2017-04-02T00:25:16.861Z,1006.24
2017-04-02T00:26:16.776Z,1006.24
2017-04-02T00:27:16.775Z,1006.25
2017-04-02T00:28:16.749Z,1006.29
2017-04-02T00:29:16.741Z,1006.28
2017-04-02T00:30:16.723Z,1006.3
2017-04-02T00:31:16.710Z,1006.29
2017-04-02T00:32:16.695Z,1006.31
2017-04-02T00:33:16.682Z,1006.28
2017-04-02T00:34:16.669Z,1006.34
2017-04-02T00:35:16.656Z,1006.32
2017-04-02T00:36:16.644Z,1006.34
2017-04-02T00:37:16.629Z,1006.37
2017-04-02T00:38:16.695Z,1006.33
2017-04-02T00:39:16.603Z,1006.37
2017-04-02T00:40:16.735Z,1006.37
2017-04-02T00:41:16.576Z,1006.43
2017-04-02T00:42:16.568Z,1006.4
2017-04-02T00:43:16.750Z,1006.43
2017-04-02T00:44:16.620Z,1006.42
2017-04-02T00:45:16.521Z,1006.41
2017-04-02T00:46:16.510Z,1006.46
2017-04-02T00:47:16.493Z,1006.46
2017-04-02T00:48:16.480Z,1006.45
2017-04-02T00:49:16.468Z,1006.46
2017-04-02T00:50:16.454Z,1006.44
2017-04-02T00:51:16.473Z,1006.44
2017-04-02T00:52:16.427Z,1006.44
2017-04-02T00:53:16.414Z,1006.44
2017-04-02T00:54:16.458Z,1006.46
2017-04-02T00:55:16.469Z,1006.48
2017-04-02T00:56:16.452Z,1006.49
2017-04-02T00:57:16.360Z,1006.47
2017-04-02T00:58:16.395Z,1006.53
2017-04-02T00:59:16.335Z,1006.49
2017-04-02T01:00:16.319Z,1006.49
2017-04-02T01:01:16.306Z,1006.48
2017-04-02T01:02:16.290Z,1006.52
2017-04-02T01:03:16.278Z,1006.53
2017-04-02T01:04:16.265Z,1006.53
2017-04-02T01:05:16.249Z,1006.56
2017-04-02T01:06:16.238Z,1006.54
2017-04-02T01:07:16.225Z,1006.53
2017-04-02T01:08:16.207Z,1006.58
2017-04-02T01:09:16.194Z,1006.59
2017-04-02T01:10:16.183Z,1006.62
2017-04-02T01:11:16.167Z,1006.63
2017-04-02T01:12:16.219Z,1006.6
2017-04-02T01:13:16.164Z,1006.61
2017-04-02T01:14:16.126Z,1006.65
2017-04-02T01:15:16.115Z,1006.66
2017-04-02T01:16:16.098Z,1006.64
2017-04-02T01:17:16.110Z,1006.68
2017-04-02T01:18:16.072Z,1006.72
2017-04-02T01:19:16.103Z,1006.7
2017-04-02T01:20:16.045Z,1006.69
2017-04-02T01:21:16.058Z,1006.73
2017-04-02T01:22:16.023Z,1006.74
2017-04-02T01:23:16.070Z,1006.72
2017-04-02T01:24:15.996Z,1006.75
2017-04-02T01:25:16.095Z,1006.74
2017-04-02T01:26:15.964Z,1006.7
2017-04-02T01:27:15.947Z,1006.75
2017-04-02T01:28:15.933Z,1006.72
2017-04-02T01:29:15.924Z,1006.78
2017-04-02T01:30:15.916Z,1006.76
2017-04-02T01:31:15.896Z,1006.76
2017-04-02T01:32:15.883Z,1006.71
2017-04-02T01:33:15.864Z,1006.74
2017-04-02T01:34:15.853Z,1006.75
2017-04-02T01:35:15.849Z,1006.73
2017-04-02T01:36:15.833Z,1006.74
2017-04-02T01:37:15.845Z,1006.77
2017-04-02T01:38:15.807Z,1006.76
2017-04-02T01:39:15.789Z,1006.77
2017-04-02T01:40:15.772Z,1006.78
2017-04-02T01:41:15.844Z,1006.77
2017-04-02T01:42:15.814Z,1006.79
2017-04-02T01:43:15.728Z,1006.81
2017-04-02T01:44:15.712Z,1006.8
2017-04-02T01:45:15.696Z,1006.84
2017-04-02T01:46:15.684Z,1006.82
2017-04-02T01:47:15.670Z,1006.79
2017-04-02T01:48:15.657Z,1006.81
2017-04-02T01:49:15.641Z,1006.79
2017-04-02T01:50:15.677Z,1006.8
2017-04-02T01:51:15.614Z,1006.76
2017-04-02T01:52:15.599Z,1006.75
2017-04-02T01:53:15.585Z,1006.78
2017-04-02T01:54:15.571Z,1006.75
2017-04-02T01:55:15.557Z,1006.77
2017-04-02T01:56:15.640Z,1006.78
2017-04-02T01:57:15.529Z,1006.78
2017-04-02T01:58:15.515Z,1006.78
2017-04-02T01:59:15.504Z,1006.79
2017-04-02T02:00:15.486Z,1006.82
2017-04-02T02:01:15.472Z,1006.77
2017-04-02T02:02:15.460Z,1006.82
2017-04-02T02:03:15.444Z,1006.8
2017-04-02T02:04:15.432Z,1006.79
2017-04-02T02:05:15.476Z,1006.78
2017-04-02T02:06:15.403Z,1006.8
2017-04-02T02:07:15.477Z,1006.81
2017-04-02T02:08:15.377Z,1006.84
2017-04-02T02:09:15.360Z,1006.81
2017-04-02T02:10:15.367Z,1006.86
2017-04-02T02:11:15.480Z,1006.85
2017-04-02T02:12:15.389Z,1006.86
2017-04-02T02:13:15.306Z,1006.88
2017-04-02T02:14:15.297Z,1006.87
2017-04-02T02:15:15.278Z,1006.89
2017-04-02T02:16:15.270Z,1006.93
2017-04-02T02:17:15.249Z,1006.9
2017-04-02T02:18:15.235Z,1006.95
2017-04-02T02:19:15.225Z,1006.91
2017-04-02T02:20:15.206Z,1006.96
2017-04-02T02:21:15.193Z,1006.97
2017-04-02T02:22:15.181Z,1006.98
2017-04-02T02:23:15.167Z,1006.99
2017-04-02T02:24:15.152Z,1006.99
2017-04-02T02:25:15.201Z,1007.03
2017-04-02T02:26:15.211Z,1007
2017-04-02T02:27:15.213Z,1007.05
2017-04-02T02:28:15.100Z,1007.06
2017-04-02T02:29:15.081Z,1007.08
2017-04-02T02:30:15.070Z,1007.06
2017-04-02T02:31:15.056Z,1007.06
2017-04-02T02:32:15.121Z,1007.11
2017-04-02T02:33:15.027Z,1007.08
2017-04-02T02:34:15.017Z,1007.1
2017-04-02T02:35:15.000Z,1007.12
2017-04-02T02:36:14.985Z,1007.11
2017-04-02T02:37:14.972Z,1007.14
2017-04-02T02:38:14.965Z,1007.15
2017-04-02T02:39:14.964Z,1007.17
2017-04-02T02:40:15.027Z,1007.18
2017-04-02T02:41:14.978Z,1007.19
2017-04-02T02:42:14.970Z,1007.18
2017-04-02T02:43:14.888Z,1007.18
2017-04-02T02:44:14.873Z,1007.2
2017-04-02T02:45:14.860Z,1007.16
2017-04-02T02:46:14.849Z,1007.18
2017-04-02T02:47:14.834Z,1007.21
2017-04-02T02:48:14.819Z,1007.23
2017-04-02T02:49:14.806Z,1007.2
2017-04-02T02:50:14.791Z,1007.2
2017-04-02T02:51:14.776Z,1007.22
2017-04-02T02:52:14.765Z,1007.18
2017-04-02T02:53:14.750Z,1007.23
2017-04-02T02:54:14.740Z,1007.22
2017-04-02T02:55:14.736Z,1007.27
2017-04-02T02:56:14.721Z,1007.28
2017-04-02T02:57:14.727Z,1007.29
2017-04-02T02:58:14.678Z,1007.28
2017-04-02T02:59:14.667Z,1007.27
2017-04-02T03:00:14.654Z,1007.3
2017-04-02T03:01:14.638Z,1007.27
2017-04-02T03:02:14.625Z,1007.29
2017-04-02T03:03:14.611Z,1007.31
2017-04-02T03:04:14.651Z,1007.3
2017-04-02T03:05:14.584Z,1007.37
2017-04-02T03:06:14.603Z,1007.31
2017-04-02T03:07:14.556Z,1007.32
2017-04-02T03:08:14.578Z,1007.34
2017-04-02T03:09:14.658Z,1007.42
2017-04-02T03:10:14.516Z,1007.4
2017-04-02T03:11:14.551Z,1007.41
2017-04-02T03:12:14.489Z,1007.39
2017-04-02T03:13:14.474Z,1007.37
2017-04-02T03:14:14.459Z,1007.37
2017-04-02T03:15:14.447Z,1007.42
2017-04-02T03:16:14.434Z,1007.43
2017-04-02T03:17:14.418Z,1007.42
2017-04-02T03:18:14.403Z,1007.43
2017-04-02T03:19:14.390Z,1007.41
2017-04-02T03:20:14.374Z,1007.45
2017-04-02T03:21:14.361Z,1007.44
2017-04-02T03:22:14.349Z,1007.48
2017-04-02T03:23:14.333Z,1007.46
2017-04-02T03:24:14.319Z,1007.45
2017-04-02T03:25:14.307Z,1007.44
2017-04-02T03:26:14.332Z,1007.46
2017-04-02T03:27:14.280Z,1007.47
2017-04-02T03:28:14.265Z,1007.48
2017-04-02T03:29:14.252Z,1007.46
2017-04-02T03:30:14.238Z,1007.56
2017-04-02T03:31:14.223Z,1007.5
2017-04-02T03:32:14.210Z,1007.5
2017-04-02T03:33:14.195Z,1007.52
2017-04-02T03:34:14.185Z,1007.51
2017-04-02T03:35:14.167Z,1007.48
2017-04-02T03:36:14.153Z,1007.45
2017-04-02T03:37:14.140Z,1007.49
2017-04-02T03:38:14.163Z,1007.49
2017-04-02T03:39:14.113Z,1007.51
2017-04-02T03:40:14.098Z,1007.47
2017-04-02T03:41:14.101Z,1007.54
2017-04-02T03:42:14.070Z,1007.51
2017-04-02T03:43:14.059Z,1007.52
2017-04-02T03:44:14.043Z,1007.53
2017-04-02T03:45:14.029Z,1007.55
2017-04-02T03:46:14.015Z,1007.57
2017-04-02T03:47:14.004Z,1007.58
2017-04-02T03:48:13.991Z,1007.59
2017-04-02T03:49:13.972Z,1007.58
2017-04-02T03:50:13.959Z,1007.59
2017-04-02T03:51:13.946Z,1007.62
2017-04-02T03:52:13.932Z,1007.59
2017-04-02T03:53:13.918Z,1007.62
2017-04-02T03:54:13.934Z,1007.63
2017-04-02T03:55:13.953Z,1007.63
2017-04-02T03:56:13.901Z,1007.65
2017-04-02T03:57:13.862Z,1007.68
2017-04-02T03:58:13.848Z,1007.68
2017-04-02T03:59:13.835Z,1007.63
2017-04-02T04:00:13.822Z,1007.68
2017-04-02T04:01:13.807Z,1007.68
2017-04-02T04:02:13.801Z,1007.67
2017-04-02T04:03:13.778Z,1007.7
2017-04-02T04:04:13.764Z,1007.71
2017-04-02T04:05:13.752Z,1007.71
2017-04-02T04:06:13.738Z,1007.73
2017-04-02T04:07:13.727Z,1007.75
2017-04-02T04:08:13.717Z,1007.75
2017-04-02T04:09:13.697Z,1007.74
2017-04-02T04:10:13.683Z,1007.8
2017-04-02T04:11:13.836Z,1007.79
2017-04-02T04:12:13.725Z,1007.81
2017-04-02T04:13:13.640Z,1007.85
2017-04-02T04:14:13.625Z,1007.87
2017-04-02T04:15:13.613Z,1007.83
2017-04-02T04:16:13.598Z,1007.88
2017-04-02T04:17:13.584Z,1007.86
2017-04-02T04:18:13.572Z,1007.84
2017-04-02T04:19:13.556Z,1007.88
2017-04-02T04:20:13.542Z,1007.85
2017-04-02T04:21:13.527Z,1007.92
2017-04-02T04:22:13.517Z,1007.92
2017-04-02T04:23:13.503Z,1007.94
2017-04-02T04:24:13.544Z,1007.94
2017-04-02T04:25:13.473Z,1007.95
2017-04-02T04:26:13.459Z,1007.98
2017-04-02T04:27:13.483Z,1007.98
2017-04-02T04:28:13.429Z,1007.99
2017-04-02T04:29:13.417Z,1008.01
2017-04-02T04:30:13.403Z,1008.03
2017-04-02T04:31:13.388Z,1008.1
2017-04-02T04:32:13.374Z,1008.1
2017-04-02T04:33:13.370Z,1008.09
2017-04-02T04:34:13.345Z,1008.11
2017-04-02T04:35:13.381Z,1008.08
2017-04-02T04:36:13.318Z,1008.11
2017-04-02T04:37:13.306Z,1008.15
2017-04-02T04:38:13.302Z,1008.17
2017-04-02T04:39:13.321Z,1008.18
2017-04-02T04:40:13.325Z,1008.17
2017-04-02T04:41:13.295Z,1008.21
2017-04-02T04:42:13.338Z,1008.2
2017-04-02T04:43:13.218Z,1008.24
2017-04-02T04:44:13.407Z,1008.26
2017-04-02T04:45:13.192Z,1008.22
2017-04-02T04:46:13.177Z,1008.24
2017-04-02T04:47:13.165Z,1008.27
2017-04-02T04:48:13.151Z,1008.3
2017-04-02T04:49:13.134Z,1008.28
2017-04-02T04:50:13.125Z,1008.3
2017-04-02T04:51:13.111Z,1008.3
2017-04-02T04:52:13.095Z,1008.27
2017-04-02T04:53:13.085Z,1008.31
2017-04-02T04:54:13.066Z,1008.31
2017-04-02T04:55:13.058Z,1008.32
2017-04-02T04:56:13.073Z,1008.37
2017-04-02T04:57:13.071Z,1008.39
2017-04-02T04:58:13.017Z,1008.4
2017-04-02T04:59:12.999Z,1008.41
2017-04-02T05:00:13.061Z,1008.46
2017-04-02T05:01:12.974Z,1008.43
2017-04-02T05:02:13.006Z,1008.45
2017-04-02T05:03:12.946Z,1008.47
2017-04-02T05:04:12.934Z,1008.45
2017-04-02T05:05:12.913Z,1008.47
2017-04-02T05:06:12.900Z,1008.48
2017-04-02T05:07:12.892Z,1008.49
2017-04-02T05:08:12.876Z,1008.54
2017-04-02T05:09:12.937Z,1008.53
2017-04-02T05:10:12.846Z,1008.54
2017-04-02T05:11:12.909Z,1008.56
2017-04-02T05:12:12.852Z,1008.58
2017-04-02T05:13:12.798Z,1008.56
2017-04-02T05:14:12.782Z,1008.59
2017-04-02T05:15:12.768Z,1008.65
2017-04-02T05:16:12.756Z,1008.65
2017-04-02T05:17:12.740Z,1008.67
2017-04-02T05:18:12.725Z,1008.75
2017-04-02T05:19:12.711Z,1008.75
2017-04-02T05:20:12.699Z,1008.77
2017-04-02T05:21:12.685Z,1008.75
2017-04-02T05:22:12.670Z,1008.79
2017-04-02T05:23:12.699Z,1008.82
2017-04-02T05:24:12.640Z,1008.81
2017-04-02T05:25:12.686Z,1008.83
2017-04-02T05:26:12.667Z,1008.84
2017-04-02T05:27:12.801Z,1008.82
2017-04-02T05:28:12.587Z,1008.84
2017-04-02T05:29:12.572Z,1008.84
2017-04-02T05:30:12.559Z,1008.87
2017-04-02T05:31:12.544Z,1008.82
2017-04-02T05:32:12.532Z,1008.87
2017-04-02T05:33:12.516Z,1008.88
2017-04-02T05:34:12.501Z,1008.86
2017-04-02T05:35:12.487Z,1008.91
2017-04-02T05:36:12.570Z,1008.89
2017-04-02T05:37:12.461Z,1008.94
2017-04-02T05:38:12.444Z,1008.92
2017-04-02T05:39:12.466Z,1008.92
2017-04-02T05:40:12.457Z,1008.93
2017-04-02T05:41:12.475Z,1008.93
2017-04-02T05:42:12.387Z,1008.96
2017-04-02T05:43:12.374Z,1008.94
2017-04-02T05:44:12.363Z,1008.94
2017-04-02T05:45:12.349Z,1008.93
2017-04-02T05:46:12.330Z,1008.91
2017-04-02T05:47:12.318Z,1008.96
2017-04-02T05:48:12.305Z,1008.98
2017-04-02T05:49:12.290Z,1009
2017-04-02T05:50:12.368Z,1008.99
2017-04-02T05:51:12.262Z,1008.98
2017-04-02T05:52:12.248Z,1009
2017-04-02T05:53:12.239Z,1008.99
2017-04-02T05:54:12.223Z,1009.04
2017-04-02T05:55:12.221Z,1009.04
2017-04-02T05:56:12.304Z,1009.07
2017-04-02T05:57:12.275Z,1009.09
2017-04-02T05:58:12.167Z,1009.1
2017-04-02T05:59:12.152Z,1009.12
2017-04-02T06:00:12.144Z,1009.1
2017-04-02T06:01:12.130Z,1009.16
2017-04-02T06:02:12.118Z,1009.14
2017-04-02T06:03:12.102Z,1009.19
2017-04-02T06:04:12.084Z,1009.2
2017-04-02T06:05:12.069Z,1009.17
2017-04-02T06:06:12.061Z,1009.17
2017-04-02T06:07:12.046Z,1009.19
2017-04-02T06:08:12.035Z,1009.21
2017-04-02T06:09:12.114Z,1009.19
2017-04-02T06:10:12.186Z,1009.19
2017-04-02T06:11:12.158Z,1009.2
2017-04-02T06:12:12.092Z,1009.22
2017-04-02T06:13:11.957Z,1009.22
2017-04-02T06:14:11.946Z,1009.29
2017-04-02T06:15:11.931Z,1009.26
2017-04-02T06:16:11.916Z,1009.3
2017-04-02T06:17:12.020Z,1009.28
2017-04-02T06:18:11.890Z,1009.27
2017-04-02T06:19:11.876Z,1009.28
2017-04-02T06:20:11.860Z,1009.26
2017-04-02T06:21:11.853Z,1009.3
2017-04-02T06:22:11.849Z,1009.31
2017-04-02T06:23:12.057Z,1009.35
2017-04-02T06:24:12.029Z,1009.36
2017-04-02T06:25:11.827Z,1009.38
2017-04-02T06:26:11.983Z,1009.37
2017-04-02T06:27:11.824Z,1009.36
2017-04-02T06:28:11.800Z,1009.41
2017-04-02T06:29:11.737Z,1009.42
2017-04-02T06:30:11.723Z,1009.4
2017-04-02T06:31:11.711Z,1009.48
2017-04-02T06:32:11.697Z,1009.52
2017-04-02T06:33:11.683Z,1009.59
2017-04-02T06:34:11.870Z,1009.59
2017-04-02T06:35:11.657Z,1009.59
2017-04-02T06:36:11.644Z,1009.65
2017-04-02T06:37:11.628Z,1009.62
2017-04-02T06:38:11.622Z,1009.65
2017-04-02T06:39:11.603Z,1009.65
2017-04-02T06:40:11.589Z,1009.67
2017-04-02T06:41:11.576Z,1009.71
2017-04-02T06:42:11.561Z,1009.68
2017-04-02T06:43:11.548Z,1009.71
2017-04-02T06:44:11.738Z,1009.74
2017-04-02T06:45:11.520Z,1009.74
2017-04-02T06:46:11.507Z,1009.74
2017-04-02T06:47:11.495Z,1009.79
2017-04-02T06:48:11.480Z,1009.79
2017-04-02T06:49:11.467Z,1009.78
2017-04-02T06:50:11.452Z,1009.77
2017-04-02T06:51:11.440Z,1009.84
2017-04-02T06:52:11.427Z,1009.82
2017-04-02T06:53:11.414Z,1009.82
2017-04-02T06:54:11.405Z,1009.87
2017-04-02T06:55:11.387Z,1009.89
2017-04-02T06:56:11.711Z,1009.9
2017-04-02T06:57:11.361Z,1009.91
2017-04-02T06:58:11.346Z,1009.98
2017-04-02T06:59:11.333Z,1009.97
2017-04-02T07:00:11.321Z,1009.99
2017-04-02T07:01:11.308Z,1009.99
2017-04-02T07:02:11.293Z,1010.02
2017-04-02T07:03:11.280Z,1010
2017-04-02T07:04:11.266Z,1010.01
2017-04-02T07:05:11.507Z,1010.03
2017-04-02T07:06:11.251Z,1010.06
2017-04-02T07:07:11.489Z,1010.05
2017-04-02T07:08:11.218Z,1010.03
2017-04-02T07:09:11.391Z,1010.07
2017-04-02T07:10:11.559Z,1010.06
2017-04-02T07:11:11.261Z,1010.09
2017-04-02T07:12:11.380Z,1010.13
2017-04-02T07:13:11.151Z,1010.13
2017-04-02T07:14:11.137Z,1010.1
2017-04-02T07:15:11.124Z,1010.15
2017-04-02T07:16:11.116Z,1010.12
2017-04-02T07:17:11.101Z,1010.14
2017-04-02T07:18:11.086Z,1010.14
2017-04-02T07:19:11.075Z,1010.18
2017-04-02T07:20:11.061Z,1010.09
2017-04-02T07:21:11.048Z,1010.16
2017-04-02T07:22:11.036Z,1010.16
2017-04-02T07:23:11.025Z,1010.14
2017-04-02T07:24:11.008Z,1010.15
2017-04-02T07:25:11.007Z,1010.16
2017-04-02T07:26:11.048Z,1010.16
2017-04-02T07:27:11.013Z,1010.16
2017-04-02T07:28:10.957Z,1010.19
2017-04-02T07:29:10.945Z,1010.24
2017-04-02T07:30:11.033Z,1010.23
2017-04-02T07:31:10.918Z,1010.25
2017-04-02T07:32:10.905Z,1010.26
2017-04-02T07:33:10.893Z,1010.25
2017-04-02T07:34:10.880Z,1010.29
2017-04-02T07:35:10.868Z,1010.33
2017-04-02T07:36:10.854Z,1010.28
2017-04-02T07:37:10.841Z,1010.31
2017-04-02T07:38:10.831Z,1010.3
2017-04-02T07:39:10.817Z,1010.36
2017-04-02T07:40:10.802Z,1010.36
2017-04-02T07:41:10.790Z,1010.38
2017-04-02T07:42:10.890Z,1010.41
2017-04-02T07:43:10.763Z,1010.39
2017-04-02T07:44:10.750Z,1010.43
2017-04-02T07:45:10.739Z,1010.44
2017-04-02T07:46:10.728Z,1010.44
2017-04-02T07:47:10.712Z,1010.5
2017-04-02T07:48:10.699Z,1010.51
2017-04-02T07:49:10.689Z,1010.52
2017-04-02T07:50:10.675Z,1010.52
2017-04-02T07:51:10.664Z,1010.55
2017-04-02T07:52:10.810Z,1010.55
2017-04-02T07:53:10.637Z,1010.57
2017-04-02T07:54:10.692Z,1010.59
2017-04-02T07:55:10.614Z,1010.61
2017-04-02T07:56:10.800Z,1010.57
2017-04-02T07:57:10.803Z,1010.56
2017-04-02T07:58:10.574Z,1010.56
2017-04-02T07:59:10.561Z,1010.53
2017-04-02T08:00:10.550Z,1010.5
2017-04-02T08:01:10.542Z,1010.53
2017-04-02T08:02:10.524Z,1010.58
2017-04-02T08:03:10.513Z,1010.56
2017-04-02T08:04:10.522Z,1010.57
2017-04-02T08:05:10.487Z,1010.62
2017-04-02T08:06:10.473Z,1010.6
2017-04-02T08:07:10.462Z,1010.59
2017-04-02T08:08:10.457Z,1010.6
2017-04-02T08:09:10.714Z,1010.62
2017-04-02T08:10:10.549Z,1010.61
2017-04-02T08:11:10.702Z,1010.64
2017-04-02T08:12:10.475Z,1010.65
2017-04-02T08:13:10.388Z,1010.68
2017-04-02T08:14:10.378Z,1010.71
2017-04-02T08:15:10.367Z,1010.8
2017-04-02T08:16:10.352Z,1010.93
2017-04-02T08:17:10.340Z,1010.94
2017-04-02T08:18:10.330Z,1010.96
2017-04-02T08:19:10.319Z,1010.91
2017-04-02T08:20:10.307Z,1010.96
2017-04-02T08:21:10.298Z,1010.96
2017-04-02T08:22:10.293Z,1010.97
2017-04-02T08:23:10.277Z,1011
2017-04-02T08:24:10.266Z,1011.09
2017-04-02T08:25:10.257Z,1011.15
2017-04-02T08:26:10.248Z,1011.1
2017-04-02T08:27:10.239Z,1011.15
2017-04-02T08:28:10.228Z,1011.16
2017-04-02T08:29:10.221Z,1011.15
2017-04-02T08:30:10.215Z,1011.19
2017-04-02T08:31:10.205Z,1011.24
2017-04-02T08:32:10.197Z,1011.21
2017-04-02T08:33:10.188Z,1011.14
2017-04-02T08:34:10.183Z,1011.18
2017-04-02T08:35:10.174Z,1011.3
2017-04-02T08:36:10.168Z,1011.26
2017-04-02T08:37:10.163Z,1011.19
2017-04-02T08:38:10.154Z,1011.13
2017-04-02T08:39:10.148Z,1011.21
2017-04-02T08:40:10.142Z,1011.28
2017-04-02T08:41:10.140Z,1011.29
2017-04-02T08:42:10.129Z,1011.33
2017-04-02T08:43:10.125Z,1011.35
2017-04-02T08:44:10.321Z,1011.41
2017-04-02T08:45:10.112Z,1011.43
2017-04-02T08:46:10.107Z,1011.42
2017-04-02T08:47:10.100Z,1011.39
2017-04-02T08:48:10.096Z,1011.33
2017-04-02T08:49:10.092Z,1011.39
2017-04-02T08:50:10.084Z,1011.39
2017-04-02T08:51:10.078Z,1011.39
2017-04-02T08:52:10.074Z,1011.43
2017-04-02T08:53:10.069Z,1011.46
2017-04-02T08:54:10.063Z,1011.42
2017-04-02T08:55:10.058Z,1011.46
2017-04-02T08:56:10.051Z,1011.46
2017-04-02T08:57:10.045Z,1011.52
2017-04-02T08:58:10.039Z,1011.52
2017-04-02T08:59:10.033Z,1011.46
2017-04-02T09:00:10.026Z,1011.53
2017-04-02T09:01:10.074Z,1011.44
2017-04-02T09:02:10.016Z,1011.44
2017-04-02T09:03:10.011Z,1011.51
2017-04-02T09:04:10.005Z,1011.44
2017-04-02T09:05:09.999Z,1011.45
2017-04-02T09:06:09.995Z,1011.45
2017-04-02T09:07:09.988Z,1011.45
2017-04-02T09:08:09.982Z,1011.44
2017-04-02T09:09:09.976Z,1011.47
2017-04-02T09:10:09.972Z,1011.5
2017-04-02T09:11:09.965Z,1011.61
2017-04-02T09:12:09.985Z,1011.59
2017-04-02T09:13:09.991Z,1011.63
2017-04-02T09:14:09.947Z,1011.69
2017-04-02T09:15:09.942Z,1011.64
2017-04-02T09:16:09.937Z,1011.54
2017-04-02T09:17:09.928Z,1011.54
2017-04-02T09:18:09.922Z,1011.5
2017-04-02T09:19:09.917Z,1011.52
2017-04-02T09:20:09.941Z,1011.52
2017-04-02T09:21:09.905Z,1011.52
2017-04-02T09:22:09.899Z,1011.55
2017-04-02T09:23:09.892Z,1011.55
2017-04-02T09:24:09.884Z,1011.56
2017-04-02T09:25:09.880Z,1011.61
2017-04-02T09:26:09.874Z,1011.58
2017-04-02T09:27:09.864Z,1011.66
2017-04-02T09:28:09.857Z,1011.7
2017-04-02T09:29:09.850Z,1011.82
2017-04-02T09:30:09.844Z,1011.74
2017-04-02T09:31:09.836Z,1011.71
2017-04-02T09:32:09.828Z,1011.81
2017-04-02T09:33:09.824Z,1011.86
2017-04-02T09:34:09.814Z,1011.83
2017-04-02T09:35:09.807Z,1011.88
2017-04-02T09:36:09.800Z,1011.88
2017-04-02T09:37:09.796Z,1011.89
2017-04-02T09:38:09.837Z,1011.87
2017-04-02T09:39:09.779Z,1011.8
2017-04-02T09:40:09.773Z,1011.83
2017-04-02T09:41:09.766Z,1011.83
2017-04-02T09:42:09.759Z,1011.83
2017-04-02T09:43:09.754Z,1011.84
2017-04-02T09:44:09.748Z,1011.85
2017-04-02T09:45:09.741Z,1011.83
2017-04-02T09:46:09.734Z,1011.88
2017-04-02T09:47:09.729Z,1011.91
2017-04-02T09:48:09.721Z,1011.92
2017-04-02T09:49:09.715Z,1011.96
2017-04-02T09:50:09.732Z,1012.06
2017-04-02T09:51:09.703Z,1012
2017-04-02T09:52:09.698Z,1012.01
2017-04-02T09:53:09.696Z,1012.03
2017-04-02T09:54:09.687Z,1012.02
2017-04-02T09:55:09.681Z,1011.98
2017-04-02T09:56:09.675Z,1011.98
2017-04-02T09:57:09.676Z,1012.02
2017-04-02T09:58:09.665Z,1012.04
2017-04-02T09:59:09.660Z,1012.06
2017-04-02T10:00:09.655Z,1012.08
2017-04-02T10:01:09.650Z,1012.07
2017-04-02T10:02:09.644Z,1012.05
2017-04-02T10:03:09.639Z,1012.06
2017-04-02T10:04:09.634Z,1012.11
2017-04-02T10:05:09.629Z,1012.05
2017-04-02T10:06:09.623Z,1012.01
2017-04-02T10:07:09.617Z,1012.02
2017-04-02T10:08:09.613Z,1012.04
2017-04-02T10:09:09.615Z,1012.05
2017-04-02T10:10:09.602Z,1012.05
2017-04-02T10:11:09.601Z,1012.07
2017-04-02T10:12:09.594Z,1012.08
2017-04-02T10:13:09.588Z,1012.08
2017-04-02T10:14:09.582Z,1012.08
2017-04-02T10:15:09.577Z,1012.08
2017-04-02T10:16:09.571Z,1012.11
2017-04-02T10:17:09.564Z,1012.06
2017-04-02T10:18:09.560Z,1012.1
2017-04-02T10:19:09.561Z,1012.13
2017-04-02T10:20:09.548Z,1012.13
2017-04-02T10:21:09.593Z,1012.13
2017-04-02T10:22:09.536Z,1012.06
2017-04-02T10:23:09.532Z,1012.06
2017-04-02T10:24:09.526Z,1012.09
2017-04-02T10:25:09.521Z,1012.1
2017-04-02T10:26:09.518Z,1012.09
2017-04-02T10:27:09.577Z,1012.07
2017-04-02T10:28:09.504Z,1012.13
2017-04-02T10:29:09.500Z,1012.11
2017-04-02T10:30:09.496Z,1012.11
2017-04-02T10:31:09.490Z,1012.17
2017-04-02T10:32:09.486Z,1012.18
2017-04-02T10:33:09.484Z,1012.14
2017-04-02T10:34:09.476Z,1012.14
2017-04-02T10:35:09.471Z,1012.14
2017-04-02T10:36:09.466Z,1012.06
2017-04-02T10:37:09.464Z,1012.12
2017-04-02T10:38:09.457Z,1012.14
2017-04-02T10:39:09.454Z,1012.14
2017-04-02T10:40:09.448Z,1012.13
2017-04-02T10:41:09.446Z,1012.1
2017-04-02T10:42:09.440Z,1012.09
2017-04-02T10:43:09.434Z,1012.13
2017-04-02T10:44:09.633Z,1012.16
2017-04-02T10:45:09.426Z,1012.19
2017-04-02T10:46:09.421Z,1012.16
2017-04-02T10:47:09.417Z,1012.07
2017-04-02T10:48:09.413Z,1012.11
2017-04-02T10:49:09.408Z,1012.09
2017-04-02T10:50:09.402Z,1012.11
2017-04-02T10:51:09.399Z,1012.08
2017-04-02T10:52:09.403Z,1012.16
2017-04-02T10:53:09.390Z,1012.09
2017-04-02T10:54:09.386Z,1012.04
2017-04-02T10:55:09.381Z,1012.01
2017-04-02T10:56:09.377Z,1011.96
2017-04-02T10:57:09.373Z,1011.91
2017-04-02T10:58:09.369Z,1011.89
2017-04-02T10:59:09.366Z,1011.74
2017-04-02T11:00:09.361Z,1011.64
2017-04-02T11:01:09.356Z,1011.66
2017-04-02T11:02:09.354Z,1011.68
2017-04-02T11:03:09.357Z,1011.61
2017-04-02T11:04:09.346Z,1012.14
2017-04-02T11:05:09.344Z,1012.08
2017-04-02T11:06:09.342Z,1012.11
2017-04-02T11:07:09.339Z,1012.12
2017-04-02T11:08:09.334Z,1012.1
2017-04-02T11:09:09.333Z,1012.13
2017-04-02T11:10:09.330Z,1012.14
2017-04-02T11:11:09.328Z,1012.17
2017-04-02T11:12:09.322Z,1012.2
2017-04-02T11:13:09.336Z,1012.13
2017-04-02T11:14:09.316Z,1012.14
2017-04-02T11:15:09.309Z,1012.13
2017-04-02T11:16:09.307Z,1012.13
2017-04-02T11:17:09.353Z,1012.14
2017-04-02T11:18:09.298Z,1012.1
2017-04-02T11:19:09.314Z,1012.12
2017-04-02T11:20:09.289Z,1012.09
2017-04-02T11:21:09.288Z,1012.05
2017-04-02T11:22:09.283Z,1012.06
2017-04-02T11:23:09.329Z,1012.05
2017-04-02T11:24:09.273Z,1012.08
2017-04-02T11:25:09.269Z,1012.2
2017-04-02T11:26:09.263Z,1012.09
2017-04-02T11:27:09.261Z,1012.05
2017-04-02T11:28:09.254Z,1012.14
2017-04-02T11:29:09.248Z,1012.22
2017-04-02T11:30:09.247Z,1012.2
2017-04-02T11:31:09.237Z,1012.23
2017-04-02T11:32:09.233Z,1012.13
2017-04-02T11:33:09.228Z,1012.13
2017-04-02T11:34:09.225Z,1012.11
2017-04-02T11:35:09.222Z,1012.11
2017-04-02T11:36:09.216Z,1012.15
2017-04-02T11:37:09.214Z,1012.25
2017-04-02T11:38:09.209Z,1012.28
2017-04-02T11:39:09.203Z,1012.27
2017-04-02T11:40:09.200Z,1012.17
2017-04-02T11:41:09.194Z,1012.17
2017-04-02T11:42:09.190Z,1012.17
2017-04-02T11:43:09.187Z,1012.2
2017-04-02T11:44:09.182Z,1012.27
2017-04-02T11:45:09.179Z,1012.28
2017-04-02T11:46:09.177Z,1012.24
2017-04-02T11:47:09.172Z,1012.31
2017-04-02T11:48:09.170Z,1012.21
2017-04-02T11:49:09.165Z,1012.22
2017-04-02T11:50:09.168Z,1012.27
2017-04-02T11:51:09.161Z,1012.26
2017-04-02T11:52:09.160Z,1012.3
2017-04-02T11:53:09.156Z,1012.41
2017-04-02T11:54:09.156Z,1012.38
2017-04-02T11:55:09.154Z,1012.42
2017-04-02T11:56:09.302Z,1012.36
2017-04-02T11:57:09.153Z,1012.33
2017-04-02T11:58:09.152Z,1012.34
2017-04-02T11:59:09.151Z,1012.33
2017-04-02T12:00:09.156Z,1012.32
2017-04-02T12:01:09.151Z,1012.36
2017-04-02T12:02:09.152Z,1012.41
2017-04-02T12:03:09.153Z,1012.38
2017-04-02T12:04:09.154Z,1012.24
2017-04-02T12:05:09.155Z,1012.29
2017-04-02T12:06:09.158Z,1012.3
2017-04-02T12:07:09.160Z,1012.45
2017-04-02T12:08:09.159Z,1012.49